createdAt,value
2023-04-23T00:01:58.977Z,56.00
2023-04-23T00:04:35.416Z,56.10
2023-04-23T00:07:09.289Z,56.00
2023-04-23T00:09:43.838Z,56.20
2023-04-23T00:12:16.702Z,56.10
2023-04-23T00:14:49.811Z,56.20
2023-04-23T00:17:22.503Z,56.20
2023-04-23T00:19:55.207Z,56.20
2023-04-23T00:22:27.900Z,56.20
2023-04-23T00:25:00.431Z,56.20
2023-04-23T00:27:35.320Z,56.30
2023-04-23T00:30:10.819Z,56.20
2023-04-23T00:32:45.935Z,56.30
2023-04-23T00:35:21.560Z,56.30
2023-04-23T00:37:56.674Z,56.30
2023-04-23T00:40:30.024Z,56.30
2023-04-23T00:43:06.343Z,56.20
2023-04-23T00:45:38.940Z,56.20
2023-04-23T00:48:14.471Z,56.20
2023-04-23T00:50:47.490Z,56.20
2023-04-23T00:53:20.553Z,56.20
2023-04-23T00:55:55.540Z,56.20
2023-04-23T00:58:30.465Z,56.20
2023-04-23T01:01:04.830Z,56.10
2023-04-23T01:03:39.626Z,56.20
2023-04-23T01:06:12.291Z,56.10
2023-04-23T01:08:47.441Z,56.00
2023-04-23T01:11:20.029Z,56.00
2023-04-23T01:13:52.626Z,56.00
2023-04-23T01:16:25.325Z,56.10
2023-04-23T01:18:58.700Z,56.00
2023-04-23T01:21:34.426Z,56.00
2023-04-23T01:24:07.625Z,56.00
2023-04-23T01:26:40.612Z,56.00
2023-04-23T01:29:14.869Z,56.20
2023-04-23T01:31:47.792Z,56.00
2023-04-23T01:34:21.875Z,56.00
2023-04-23T01:36:55.181Z,56.00
2023-04-23T01:39:27.617Z,55.90
2023-04-23T01:42:01.571Z,56.00
2023-04-23T01:44:34.318Z,55.90
2023-04-23T01:47:07.336Z,55.90
2023-04-23T01:49:41.129Z,55.90
2023-04-23T01:52:13.901Z,55.90
2023-04-23T01:54:48.945Z,55.90
2023-04-23T01:57:24.442Z,55.90
2023-04-23T02:00:17.510Z,55.90
2023-04-23T02:02:56.368Z,55.90
2023-04-23T02:05:30.042Z,55.90
2023-04-23T02:08:03.323Z,55.90
2023-04-23T02:10:38.856Z,55.90
2023-04-23T02:13:17.568Z,55.90
2023-04-23T02:15:50.264Z,56.00
2023-04-23T02:18:22.974Z,56.10
2023-04-23T02:20:56.707Z,56.10
2023-04-23T02:23:29.663Z,56.10
2023-04-23T02:26:02.400Z,56.20
2023-04-23T02:28:35.792Z,56.20
2023-04-23T02:31:10.584Z,56.20
2023-04-23T02:33:47.953Z,56.20
2023-04-23T02:36:20.792Z,56.30
2023-04-23T02:38:53.416Z,56.30
2023-04-23T02:41:28.672Z,56.40
2023-04-23T02:44:02.872Z,56.40
2023-04-23T02:46:38.393Z,56.40
2023-04-23T02:49:11.164Z,56.50
2023-04-23T02:51:45.427Z,56.60
2023-04-23T02:54:20.157Z,56.60
2023-04-23T02:56:53.090Z,56.70
2023-04-23T02:59:25.938Z,56.70
2023-04-23T03:01:58.751Z,56.80
2023-04-23T03:04:31.395Z,56.80
2023-04-23T03:07:04.830Z,56.80
2023-04-23T03:09:38.482Z,56.80
2023-04-23T03:12:11.741Z,56.90
2023-04-23T03:14:44.524Z,57.00
2023-04-23T03:17:17.279Z,57.00
2023-04-23T03:19:50.541Z,57.00
2023-04-23T03:22:23.434Z,57.00
2023-04-23T03:24:56.158Z,57.10
2023-04-23T03:27:28.831Z,57.10
2023-04-23T03:30:01.639Z,57.20
2023-04-23T03:32:34.788Z,57.20
2023-04-23T03:35:08.728Z,57.20
2023-04-23T03:37:43.991Z,57.10
2023-04-23T03:40:16.818Z,57.10
2023-04-23T03:42:52.986Z,57.10
2023-04-23T03:45:33.259Z,57.20
2023-04-23T03:48:06.065Z,57.20
2023-04-23T03:50:40.666Z,57.30
2023-04-23T03:53:27.298Z,57.30
2023-04-23T03:56:17.983Z,57.40
2023-04-23T03:58:59.969Z,57.30
2023-04-23T04:01:33.221Z,57.30
2023-04-23T04:04:05.884Z,57.40
2023-04-23T04:06:38.798Z,57.50
2023-04-23T04:09:13.624Z,57.50
2023-04-23T04:11:46.318Z,57.50
2023-04-23T04:14:18.935Z,57.60
2023-04-23T04:16:53.658Z,57.60
2023-04-23T04:19:29.895Z,57.70
2023-04-23T04:22:03.892Z,57.80
2023-04-23T04:24:38.736Z,57.80
2023-04-23T04:27:11.807Z,57.90
2023-04-23T04:29:44.316Z,58.00
2023-04-23T04:32:16.916Z,59.00
2023-04-23T04:34:50.403Z,58.10
2023-04-23T04:37:22.935Z,58.10
2023-04-23T04:39:55.525Z,58.20
2023-04-23T04:42:28.174Z,58.20
2023-04-23T04:45:01.023Z,58.30
2023-04-23T04:47:33.577Z,58.40
2023-04-23T04:50:10.848Z,58.50
2023-04-23T04:52:43.448Z,58.70
2023-04-23T04:55:16.195Z,59.20
2023-04-23T04:57:51.892Z,59.50
2023-04-23T05:00:29.942Z,59.60
2023-04-23T05:03:03.462Z,59.30
2023-04-23T05:05:36.184Z,58.90
2023-04-23T05:08:14.535Z,58.50
2023-04-23T05:10:54.355Z,58.20
2023-04-23T05:13:26.979Z,57.70
2023-04-23T05:16:01.811Z,57.30
2023-04-23T05:18:36.650Z,56.70
2023-04-23T05:21:09.598Z,56.20
2023-04-23T05:23:41.992Z,55.80
2023-04-23T05:26:14.691Z,55.80
2023-04-23T05:28:47.221Z,55.20
2023-04-23T05:31:20.346Z,54.90
2023-04-23T05:33:53.782Z,54.70
2023-04-23T05:36:26.658Z,54.30
2023-04-23T05:39:01.610Z,54.00
2023-04-23T05:41:34.507Z,53.40
2023-04-23T05:44:07.033Z,53.10
2023-04-23T05:46:39.708Z,52.60
2023-04-23T05:49:16.870Z,52.30
2023-04-23T05:51:50.388Z,51.90
2023-04-23T05:54:22.970Z,51.80
2023-04-23T05:56:55.776Z,51.50
2023-04-23T05:59:28.288Z,51.60
2023-04-23T06:02:03.246Z,51.60
2023-04-23T06:04:36.449Z,51.60
2023-04-23T06:07:09.509Z,51.70
2023-04-23T06:09:42.016Z,51.50
2023-04-23T06:12:14.560Z,51.50
2023-04-23T06:14:47.892Z,51.60
2023-04-23T06:17:21.101Z,51.60
2023-04-23T06:19:53.726Z,51.40
2023-04-23T06:22:26.458Z,51.30
2023-04-23T06:24:59.073Z,51.10
2023-04-23T06:27:32.846Z,50.90
2023-04-23T06:30:11.255Z,50.90
2023-04-23T06:32:44.010Z,51.10
2023-04-23T06:35:16.764Z,50.80
2023-04-23T06:37:49.289Z,50.70
2023-04-23T06:40:21.901Z,50.90
2023-04-23T06:42:54.419Z,50.70
2023-04-23T06:45:54.273Z,50.50
2023-04-23T06:48:26.977Z,50.50
2023-04-23T06:51:02.561Z,50.40
2023-04-23T06:53:35.107Z,50.20
2023-04-23T06:56:08.217Z,50.20
2023-04-23T06:58:41.448Z,50.20
2023-04-23T07:01:22.635Z,49.90
2023-04-23T07:03:55.557Z,49.80
2023-04-23T07:06:28.204Z,49.80
2023-04-23T07:09:01.140Z,49.50
2023-04-23T07:11:35.331Z,49.30
2023-04-23T07:14:08.178Z,49.20
2023-04-23T07:16:40.934Z,49.20
2023-04-23T07:19:13.912Z,49.20
2023-04-23T07:21:46.254Z,49.00
2023-04-23T07:24:18.787Z,49.20
2023-04-23T07:26:51.351Z,48.90
2023-04-23T07:29:23.907Z,48.80
2023-04-23T07:31:57.019Z,48.70
2023-04-23T07:34:29.591Z,48.60
2023-04-23T07:37:02.165Z,48.40
2023-04-23T07:39:35.144Z,48.30
2023-04-23T07:42:07.628Z,47.90
2023-04-23T07:44:40.172Z,48.10
2023-04-23T07:47:12.787Z,47.90
2023-04-23T07:49:45.276Z,47.80
2023-04-23T07:52:18.025Z,47.60
2023-04-23T07:54:50.527Z,47.40
2023-04-23T07:57:23.063Z,47.30
2023-04-23T07:59:55.733Z,47.00
2023-04-23T08:02:28.882Z,46.90
2023-04-23T08:05:01.524Z,46.70
2023-04-23T08:07:34.537Z,46.50
2023-04-23T08:10:07.353Z,46.40
2023-04-23T08:12:39.832Z,46.80
2023-04-23T08:15:12.766Z,46.40
2023-04-23T08:17:47.895Z,46.20
2023-04-23T08:20:20.563Z,46.30
2023-04-23T08:22:54.016Z,46.00
2023-04-23T08:25:26.566Z,45.90
2023-04-23T08:27:59.508Z,45.80
2023-04-23T08:30:32.260Z,45.60
2023-04-23T08:33:05.008Z,45.40
2023-04-23T08:35:37.518Z,45.30
2023-04-23T08:38:10.034Z,45.10
2023-04-23T08:40:43.857Z,45.10
2023-04-23T08:43:44.684Z,45.10
2023-04-23T08:46:19.822Z,45.20
2023-04-23T08:48:53.762Z,45.20
2023-04-23T08:51:28.615Z,45.30
2023-04-23T08:54:06.150Z,45.00
2023-04-23T08:56:40.418Z,44.90
2023-04-23T08:59:13.289Z,45.10
2023-04-23T09:01:46.353Z,45.30
2023-04-23T09:04:20.750Z,45.20
2023-04-23T09:06:53.548Z,45.10
2023-04-23T09:09:29.779Z,45.00
2023-04-23T09:12:02.457Z,44.80
2023-04-23T09:14:38.258Z,44.80
2023-04-23T09:17:10.806Z,44.50
2023-04-23T09:19:43.875Z,44.40
2023-04-23T09:22:17.796Z,44.20
2023-04-23T09:24:50.272Z,44.40
2023-04-23T09:27:26.625Z,44.30
2023-04-23T09:30:03.391Z,44.40
2023-04-23T09:32:41.320Z,44.50
2023-04-23T09:35:16.909Z,44.40
2023-04-23T09:37:52.833Z,44.20
2023-04-23T09:40:28.243Z,44.10
2023-04-23T09:43:04.972Z,44.00
2023-04-23T09:45:38.218Z,44.00
2023-04-23T09:48:11.011Z,44.20
2023-04-23T09:50:43.673Z,44.20
2023-04-23T09:53:16.249Z,44.10
2023-04-23T09:55:48.837Z,44.20
2023-04-23T09:58:28.879Z,43.90
2023-04-23T10:01:09.402Z,43.90
2023-04-23T10:03:45.316Z,43.90
2023-04-23T10:06:39.468Z,43.80
2023-04-23T10:09:12.156Z,43.80
2023-04-23T10:11:45.591Z,43.80
2023-04-23T10:14:23.233Z,43.70
2023-04-23T10:17:00.899Z,43.70
2023-04-23T10:19:33.706Z,43.70
2023-04-23T10:22:19.635Z,43.70
2023-04-23T10:24:58.965Z,43.70
2023-04-23T10:27:40.219Z,43.90
2023-04-23T10:30:22.736Z,43.80
2023-04-23T10:32:57.353Z,43.90
2023-04-23T10:35:30.341Z,43.90
2023-04-23T10:38:04.009Z,43.80
2023-04-23T10:40:39.900Z,43.70
2023-04-23T10:43:12.816Z,43.90
2023-04-23T10:45:45.255Z,43.80
2023-04-23T10:48:18.206Z,44.10
2023-04-23T10:51:17.545Z,44.10
2023-04-23T10:53:52.835Z,44.10
2023-04-23T10:56:28.610Z,44.50
2023-04-23T10:59:01.237Z,44.50
2023-04-23T11:01:33.937Z,44.60
2023-04-23T11:04:29.548Z,44.40
2023-04-23T11:07:08.376Z,44.40
2023-04-23T11:09:46.894Z,44.70
2023-04-23T11:12:25.312Z,44.90
2023-04-23T11:15:02.020Z,45.10
2023-04-23T11:17:34.603Z,45.10
2023-04-23T11:20:11.332Z,44.90
2023-04-23T11:22:48.787Z,45.10
2023-04-23T11:25:27.111Z,45.20
2023-04-23T11:27:59.942Z,45.20
2023-04-23T11:30:33.069Z,45.40
2023-04-23T11:33:06.260Z,45.30
2023-04-23T11:35:41.736Z,45.50
2023-04-23T11:38:14.293Z,45.40
2023-04-23T11:40:48.761Z,45.50
2023-04-23T11:43:21.535Z,45.70
2023-04-23T11:45:56.188Z,45.70
2023-04-23T11:48:28.707Z,45.70
2023-04-23T11:51:01.240Z,46.00
2023-04-23T11:53:33.774Z,46.20
2023-04-23T11:56:06.564Z,46.40
2023-04-23T11:58:39.509Z,46.50
2023-04-23T12:01:15.418Z,46.90
2023-04-23T12:03:49.829Z,46.90
2023-04-23T12:06:22.654Z,47.40
2023-04-23T12:08:55.255Z,47.80
2023-04-23T12:11:28.060Z,48.10
2023-04-23T12:14:00.691Z,48.40
2023-04-23T12:16:38.653Z,49.00
2023-04-23T12:19:17.976Z,49.60
2023-04-23T12:21:59.752Z,50.30
2023-04-23T12:24:46.826Z,50.60
2023-04-23T12:27:22.176Z,51.10
2023-04-23T12:30:01.372Z,51.40
2023-04-23T12:32:34.691Z,51.40
2023-04-23T12:35:09.891Z,51.20
2023-04-23T12:37:42.474Z,51.10
2023-04-23T12:40:15.254Z,50.80
2023-04-23T12:42:47.757Z,50.30
2023-04-23T12:45:20.200Z,50.00
2023-04-23T12:47:55.205Z,50.00
2023-04-23T12:50:27.780Z,50.00
2023-04-23T12:53:00.330Z,50.10
2023-04-23T12:55:33.058Z,49.90
2023-04-23T12:58:06.492Z,49.80
2023-04-23T13:00:39.491Z,49.40
2023-04-23T13:03:14.137Z,49.20
2023-04-23T13:05:46.865Z,49.40
2023-04-23T13:08:19.306Z,49.00
2023-04-23T13:10:51.922Z,48.90
2023-04-23T13:13:24.466Z,48.90
2023-04-23T13:15:57.486Z,48.70
2023-04-23T13:18:30.361Z,48.70
2023-04-23T13:21:02.875Z,48.70
2023-04-23T13:23:35.630Z,48.70
2023-04-23T13:26:08.651Z,48.60
2023-04-23T13:28:41.341Z,48.60
2023-04-23T13:31:14.039Z,48.60
2023-04-23T13:33:46.562Z,48.70
2023-04-23T13:36:19.931Z,48.80
2023-04-23T13:38:52.596Z,48.70
2023-04-23T13:41:25.119Z,48.90
2023-04-23T13:43:59.100Z,49.00
2023-04-23T13:46:31.980Z,49.10
2023-04-23T13:49:04.486Z,49.10
2023-04-23T13:51:37.014Z,49.20
2023-04-23T13:54:09.617Z,49.20
2023-04-23T13:56:42.206Z,49.20
2023-04-23T13:59:20.002Z,49.30
2023-04-23T14:01:52.942Z,49.30
2023-04-23T14:04:27.050Z,49.10
2023-04-23T14:06:59.944Z,49.20
2023-04-23T14:09:32.446Z,49.30
2023-04-23T14:12:05.411Z,49.50
2023-04-23T14:14:38.520Z,49.40
2023-04-23T14:17:10.986Z,49.40
2023-04-23T14:19:43.869Z,49.40
2023-04-23T14:22:16.571Z,49.40
2023-04-23T14:25:00.712Z,49.40
2023-04-23T14:27:39.405Z,49.30
2023-04-23T14:30:21.023Z,49.20
2023-04-23T14:32:56.669Z,49.40
2023-04-23T14:35:42.123Z,49.50
2023-04-23T14:38:15.819Z,49.60
2023-04-23T14:40:48.336Z,49.50
2023-04-23T14:43:20.902Z,49.40
2023-04-23T14:45:53.556Z,49.40
2023-04-23T14:48:26.095Z,49.60
2023-04-23T14:50:58.793Z,49.80
2023-04-23T14:53:31.472Z,49.90
2023-04-23T14:56:04.135Z,50.00
2023-04-23T14:58:36.754Z,49.90
2023-04-23T15:01:09.525Z,50.00
2023-04-23T15:03:44.570Z,50.00
2023-04-23T15:06:17.298Z,50.00
2023-04-23T15:08:49.810Z,50.10
2023-04-23T15:11:22.418Z,50.20
2023-04-23T15:14:08.720Z,50.20
2023-04-23T15:16:48.916Z,50.10
2023-04-23T15:19:22.258Z,50.10
2023-04-23T15:21:54.774Z,50.20
2023-04-23T15:24:27.516Z,50.10
2023-04-23T15:27:01.058Z,50.20
2023-04-23T15:29:33.924Z,50.20
2023-04-23T15:32:06.637Z,50.20
2023-04-23T15:34:39.213Z,50.30
2023-04-23T15:37:11.743Z,50.30
2023-04-23T15:39:44.295Z,50.40
2023-04-23T15:42:18.518Z,50.40
2023-04-23T15:44:54.903Z,50.50
2023-04-23T15:47:27.553Z,50.60
2023-04-23T15:50:00.007Z,50.60
2023-04-23T15:52:33.134Z,50.70
2023-04-23T15:55:06.256Z,50.90
2023-04-23T15:57:38.750Z,51.00
2023-04-23T16:00:12.635Z,51.10
2023-04-23T16:02:45.655Z,51.30
2023-04-23T16:05:19.247Z,51.40
2023-04-23T16:07:51.886Z,51.40
2023-04-23T16:10:24.433Z,51.50
2023-04-23T16:12:58.813Z,51.60
2023-04-23T16:15:31.427Z,51.60
2023-04-23T16:18:04.235Z,51.70
2023-04-23T16:20:37.045Z,51.70
2023-04-23T16:23:09.610Z,51.70
2023-04-23T16:25:42.221Z,51.70
2023-04-23T16:28:14.841Z,51.80
2023-04-23T16:30:47.441Z,51.90
2023-04-23T16:33:20.073Z,51.80
2023-04-23T16:35:52.921Z,51.80
2023-04-23T16:38:25.773Z,51.80
2023-04-23T16:40:58.289Z,51.90
2023-04-23T16:43:31.687Z,51.90
2023-04-23T16:46:04.283Z,51.90
2023-04-23T16:48:37.428Z,52.00
2023-04-23T16:51:10.143Z,52.10
2023-04-23T16:53:42.672Z,53.10
2023-04-23T16:56:15.284Z,52.30
2023-04-23T16:58:47.922Z,52.40
2023-04-23T17:01:20.621Z,52.40
2023-04-23T17:03:53.291Z,52.50
2023-04-23T17:06:30.820Z,52.60
2023-04-23T17:09:05.495Z,53.60
2023-04-23T17:11:38.112Z,52.80
2023-04-23T17:14:10.753Z,53.00
2023-04-23T17:16:44.750Z,53.10
2023-04-23T17:19:18.692Z,53.10
2023-04-23T17:21:51.425Z,53.20
2023-04-23T17:24:23.960Z,53.20
2023-04-23T17:26:57.088Z,53.20
2023-04-23T17:29:29.405Z,53.30
2023-04-23T17:32:03.135Z,53.30
2023-04-23T17:34:35.775Z,53.40
2023-04-23T17:37:08.293Z,53.40
2023-04-23T17:39:41.019Z,53.50
2023-04-23T17:42:13.868Z,53.50
2023-04-23T17:44:46.554Z,53.40
2023-04-23T17:47:19.032Z,53.50
2023-04-23T17:49:51.633Z,54.50
2023-04-23T17:52:24.163Z,53.50
2023-04-23T17:54:57.163Z,53.60
2023-04-23T17:57:29.684Z,53.60
2023-04-23T18:00:09.757Z,53.50
2023-04-23T18:02:46.664Z,53.60
2023-04-23T18:05:20.066Z,53.60
2023-04-23T18:07:52.613Z,53.60
2023-04-23T18:10:25.394Z,53.60
2023-04-23T18:12:58.044Z,53.70
2023-04-23T18:15:32.593Z,53.80
2023-04-23T18:18:05.150Z,53.70
2023-04-23T18:20:39.181Z,54.00
2023-04-23T18:23:13.185Z,53.90
2023-04-23T18:25:45.641Z,54.00
2023-04-23T18:28:18.321Z,54.00
2023-04-23T18:31:02.591Z,54.00
2023-04-23T18:33:43.048Z,54.10
2023-04-23T18:36:24.730Z,54.10
2023-04-23T18:38:57.642Z,54.10
2023-04-23T18:41:31.794Z,54.10
2023-04-23T18:44:04.263Z,54.20
2023-04-23T18:46:36.845Z,54.20
2023-04-23T18:49:24.469Z,54.20
2023-04-23T18:51:57.665Z,54.30
2023-04-23T18:54:30.091Z,54.30
2023-04-23T18:57:03.241Z,54.10
2023-04-23T18:59:37.548Z,54.30
2023-04-23T19:02:13.121Z,54.30
2023-04-23T19:04:49.239Z,54.30
2023-04-23T19:07:22.053Z,54.40
2023-04-23T19:09:55.349Z,54.50
2023-04-23T19:12:28.079Z,54.50
2023-04-23T19:15:01.131Z,54.50
2023-04-23T19:17:35.313Z,54.40
2023-04-23T19:20:12.067Z,54.40
2023-04-23T19:22:45.671Z,54.50
2023-04-23T19:25:18.241Z,54.50
2023-04-23T19:27:51.160Z,54.50
2023-04-23T19:30:23.848Z,54.50
2023-04-23T19:32:56.481Z,54.50
2023-04-23T19:35:29.192Z,54.50
2023-04-23T19:38:01.802Z,54.50
2023-04-23T19:40:34.572Z,54.60
2023-04-23T19:43:07.134Z,54.50
2023-04-23T19:45:39.695Z,54.50
2023-04-23T19:48:12.390Z,54.60
2023-04-23T19:50:45.037Z,54.60
2023-04-23T19:53:17.834Z,54.60
2023-04-23T19:55:50.338Z,54.60
2023-04-23T19:58:22.974Z,54.60
2023-04-23T20:00:55.698Z,54.60
2023-04-23T20:03:29.181Z,54.60
2023-04-23T20:06:01.790Z,54.60
2023-04-23T20:08:42.551Z,54.60
2023-04-23T20:11:15.130Z,54.60
2023-04-23T20:13:47.628Z,54.50
2023-04-23T20:16:20.486Z,54.40
2023-04-23T20:18:52.996Z,54.40
2023-04-23T20:21:26.407Z,54.20
2023-04-23T20:23:58.939Z,54.10
2023-04-23T20:26:31.457Z,54.00
2023-04-23T20:29:04.489Z,54.00
2023-04-23T20:31:37.024Z,53.90
2023-04-23T20:34:09.594Z,53.90
2023-04-23T20:36:42.270Z,53.70
2023-04-23T20:39:15.546Z,53.70
2023-04-23T20:41:48.227Z,53.60
2023-04-23T20:44:23.498Z,53.60
2023-04-23T20:46:58.151Z,53.60
2023-04-23T20:49:32.409Z,53.50
2023-04-23T20:52:05.063Z,53.40
2023-04-23T20:54:37.617Z,53.40
2023-04-23T20:57:10.974Z,53.30
2023-04-23T20:59:43.752Z,53.20
2023-04-23T21:02:16.604Z,53.20
2023-04-23T21:04:49.157Z,53.30
2023-04-23T21:07:21.668Z,53.20
2023-04-23T21:09:54.183Z,53.20
2023-04-23T21:12:26.756Z,53.10
2023-04-23T21:14:59.588Z,53.10
2023-04-23T21:17:32.121Z,53.10
2023-04-23T21:20:05.650Z,53.10
2023-04-23T21:22:38.140Z,53.20
2023-04-23T21:25:10.721Z,53.10
2023-04-23T21:27:46.660Z,53.20
2023-04-23T21:30:36.545Z,53.30
2023-04-23T21:33:09.091Z,53.40
2023-04-23T21:35:41.895Z,53.40
2023-04-23T21:38:14.534Z,53.40
2023-04-23T21:40:47.226Z,53.50
2023-04-23T21:43:19.759Z,53.50
2023-04-23T21:45:52.487Z,53.50
2023-04-23T21:48:25.068Z,53.70
2023-04-23T21:50:58.024Z,53.70
2023-04-23T21:53:30.628Z,53.60
2023-04-23T21:56:03.386Z,53.70
2023-04-23T21:58:36.413Z,53.90
2023-04-23T22:01:08.958Z,53.80
2023-04-23T22:03:43.978Z,53.90
2023-04-23T22:06:17.932Z,53.90
2023-04-23T22:08:51.379Z,53.80
2023-04-23T22:11:24.013Z,53.80
2023-04-23T22:13:56.608Z,53.80
2023-04-23T22:16:29.500Z,53.70
2023-04-23T22:19:02.624Z,53.80
2023-04-23T22:21:35.211Z,53.70
2023-04-23T22:24:07.875Z,53.70
2023-04-23T22:26:40.499Z,53.80
2023-04-23T22:29:13.433Z,53.80
2023-04-23T22:31:46.241Z,53.70
2023-04-23T22:34:19.618Z,53.80
2023-04-23T22:36:52.332Z,53.80
2023-04-23T22:39:24.873Z,53.80
2023-04-23T22:41:57.355Z,53.80
2023-04-23T22:44:29.903Z,53.70
2023-04-23T22:47:02.460Z,53.70
2023-04-23T22:49:35.148Z,53.60
2023-04-23T22:52:09.100Z,53.60
2023-04-23T22:54:42.272Z,53.60
2023-04-23T22:57:14.951Z,53.70
2023-04-23T22:59:47.467Z,53.70
2023-04-23T23:02:20.224Z,53.80
2023-04-23T23:04:52.949Z,53.70
2023-04-23T23:07:25.529Z,53.70
2023-04-23T23:09:58.048Z,53.70
2023-04-23T23:12:30.701Z,53.80
2023-04-23T23:15:04.141Z,53.80
2023-04-23T23:17:36.764Z,53.80
2023-04-23T23:20:09.875Z,53.90
2023-04-23T23:22:42.721Z,53.90
2023-04-23T23:25:15.428Z,54.00
2023-04-23T23:27:48.080Z,54.00
2023-04-23T23:30:20.858Z,54.10
2023-04-23T23:32:53.482Z,54.10
2023-04-23T23:35:25.976Z,54.10
2023-04-23T23:37:58.458Z,54.10
2023-04-23T23:40:31.121Z,54.20
2023-04-23T23:43:03.663Z,54.20
2023-04-23T23:45:36.302Z,54.20
2023-04-23T23:48:09.036Z,54.30
2023-04-23T23:50:41.623Z,54.40
2023-04-23T23:53:14.235Z,54.30
2023-04-23T23:55:46.730Z,54.40
2023-04-23T23:58:19.290Z,54.40
